createdAt,value
2022-09-20T00:00:21.354Z,1.30
2022-09-20T00:03:45.084Z,1.50
2022-09-20T00:07:06.545Z,1.57
2022-09-20T00:10:31.077Z,1.40
2022-09-20T00:13:56.243Z,1.20
2022-09-20T00:17:18.046Z,1.23
2022-09-20T00:20:46.160Z,1.57
2022-09-20T00:24:07.904Z,1.30
2022-09-20T00:27:31.357Z,1.40
2022-09-20T00:30:53.675Z,1.30
2022-09-20T00:34:32.831Z,1.50
2022-09-20T00:37:54.308Z,1.60
2022-09-20T00:41:15.958Z,1.40
2022-09-20T00:44:55.214Z,1.40
2022-09-20T00:48:23.290Z,1.57
2022-09-20T00:51:48.252Z,1.33
2022-09-20T00:55:10.846Z,1.23
2022-09-20T00:58:37.603Z,1.30
2022-09-20T01:02:03.958Z,1.33
2022-09-20T01:05:26.899Z,1.50
2022-09-20T01:08:51.799Z,1.30
2022-09-20T01:12:18.960Z,1.20
2022-09-20T01:15:41.747Z,1.50
2022-09-20T01:19:15.354Z,1.30
2022-09-20T01:22:45.611Z,1.40
2022-09-20T01:26:41.960Z,1.63
2022-09-20T01:30:08.318Z,1.30
2022-09-20T01:33:36.652Z,1.30
2022-09-20T01:37:04.491Z,1.70
2022-09-20T01:40:32.342Z,1.20
2022-09-20T01:43:57.224Z,1.30
2022-09-20T01:47:31.822Z,1.57
2022-09-20T01:51:28.304Z,1.57
2022-09-20T01:55:26.893Z,1.40
2022-09-20T01:59:25.326Z,1.47
2022-09-20T02:03:29.342Z,1.47
2022-09-20T02:07:07.806Z,1.37
2022-09-20T02:10:48.553Z,1.60
2022-09-20T02:14:31.659Z,1.70
2022-09-20T02:18:10.466Z,1.27
2022-09-20T02:21:40.106Z,1.30
2022-09-20T02:25:13.163Z,1.00
2022-09-20T02:28:56.611Z,1.00
2022-09-20T02:32:30.250Z,1.40
2022-09-20T02:36:08.742Z,1.10
2022-09-20T02:39:39.480Z,1.30
2022-09-20T02:43:09.815Z,1.37
2022-09-20T02:46:36.483Z,1.20
2022-09-20T02:50:14.557Z,1.10
2022-09-20T02:53:44.311Z,1.40
2022-09-20T02:57:15.382Z,1.00
2022-09-20T03:00:45.741Z,1.33
2022-09-20T03:04:21.782Z,1.30
2022-09-20T03:07:55.597Z,1.30
2022-09-20T03:11:30.292Z,1.50
2022-09-20T03:15:05.316Z,1.60
2022-09-20T03:18:35.901Z,1.90
2022-09-20T03:22:06.479Z,1.77
2022-09-20T03:25:53.067Z,1.80
2022-09-20T03:29:36.246Z,1.70
2022-09-20T03:33:05.648Z,1.80
2022-09-20T03:36:43.067Z,1.60
2022-09-20T03:40:23.944Z,1.70
2022-09-20T03:44:09.891Z,1.40
2022-09-20T03:47:58.722Z,1.60
2022-09-20T03:51:33.744Z,1.40
2022-09-20T03:55:09.687Z,1.30
2022-09-20T03:58:45.222Z,1.50
2022-09-20T04:02:29.328Z,1.67
2022-09-20T04:06:10.676Z,1.53
2022-09-20T04:09:54.754Z,1.60
2022-09-20T04:13:32.735Z,1.40
2022-09-20T04:17:02.293Z,1.43
2022-09-20T04:20:32.515Z,1.60
2022-09-20T04:24:01.978Z,1.70
2022-09-20T04:27:29.883Z,1.53
2022-09-20T04:30:57.279Z,1.20
2022-09-20T04:34:46.012Z,1.50
2022-09-20T04:38:11.675Z,1.83
2022-09-20T04:42:12.607Z,1.33
2022-09-20T04:46:06.845Z,1.70
2022-09-20T04:49:59.880Z,1.40
2022-09-20T04:53:55.564Z,1.60
2022-09-20T04:57:57.811Z,1.43
2022-09-20T05:01:55.876Z,1.83
2022-09-20T05:05:58.186Z,1.60
2022-09-20T05:09:51.000Z,1.50
2022-09-20T05:13:22.065Z,1.87
2022-09-20T05:17:02.974Z,1.50
2022-09-20T05:20:50.960Z,1.63
2022-09-20T05:24:26.339Z,1.80
2022-09-20T05:27:53.605Z,1.70
2022-09-20T05:31:21.821Z,1.80
2022-09-20T05:34:51.063Z,2.23
2022-09-20T05:38:18.698Z,2.30
2022-09-20T05:41:47.029Z,1.87
2022-09-20T05:45:23.769Z,1.97
2022-09-20T05:48:57.546Z,2.27
2022-09-20T05:52:39.971Z,2.40
2022-09-20T05:56:14.141Z,2.20
2022-09-20T05:59:52.928Z,2.17
2022-09-20T06:03:24.082Z,1.60
2022-09-20T06:06:58.629Z,2.70
2022-09-20T06:11:01.834Z,3.77
2022-09-20T06:14:38.779Z,2.87
2022-09-20T06:18:17.703Z,3.00
2022-09-20T06:21:47.586Z,2.67
2022-09-20T06:25:17.832Z,2.20
2022-09-20T06:28:42.653Z,2.40
2022-09-20T06:32:04.174Z,2.17
2022-09-20T06:35:34.819Z,2.03
2022-09-20T06:39:25.074Z,1.90
2022-09-20T06:42:46.701Z,1.40
2022-09-20T06:46:08.956Z,2.37
2022-09-20T06:49:30.920Z,2.90
2022-09-20T06:52:55.091Z,1.80
2022-09-20T06:56:20.463Z,2.00
2022-09-20T06:59:42.212Z,2.10
2022-09-20T07:03:04.058Z,2.00
2022-09-20T07:06:26.311Z,1.70
2022-09-20T07:09:49.013Z,2.17
2022-09-20T07:13:13.845Z,1.93
2022-09-20T07:16:36.903Z,1.80
2022-09-20T07:19:59.908Z,2.17
2022-09-20T07:23:21.546Z,2.00
2022-09-20T07:26:56.235Z,1.67
2022-09-20T07:30:19.139Z,1.40
2022-09-20T07:33:40.546Z,1.57
2022-09-20T07:37:01.808Z,1.30
2022-09-20T07:40:23.695Z,1.67
2022-09-20T07:43:47.179Z,1.30
2022-09-20T07:47:11.210Z,1.13
2022-09-20T07:50:32.734Z,1.30
2022-09-20T07:53:55.742Z,1.00
2022-09-20T07:57:17.375Z,1.23
2022-09-20T08:00:40.289Z,0.80
2022-09-20T08:04:02.620Z,0.98
2022-09-20T08:07:24.277Z,0.85
2022-09-20T08:10:46.228Z,0.90
2022-09-20T08:14:09.461Z,1.02
2022-09-20T08:17:32.647Z,1.05
2022-09-20T08:20:55.449Z,0.90
2022-09-20T08:24:17.374Z,0.90
2022-09-20T08:27:39.179Z,0.70
2022-09-20T08:31:04.807Z,0.90
2022-09-20T08:34:27.705Z,0.70
2022-09-20T08:37:50.390Z,0.77
2022-09-20T08:41:15.180Z,0.70
2022-09-20T08:44:45.260Z,0.68
2022-09-20T08:48:14.414Z,1.00
2022-09-20T08:51:41.086Z,0.65
2022-09-20T08:55:07.660Z,0.63
2022-09-20T08:58:29.294Z,0.57
2022-09-20T09:01:52.255Z,0.80
2022-09-20T09:05:32.428Z,0.60
2022-09-20T09:08:59.357Z,0.57
2022-09-20T09:12:27.934Z,0.60
2022-09-20T09:15:56.791Z,0.50
2022-09-20T09:19:36.047Z,0.52
2022-09-20T09:23:04.747Z,0.40
2022-09-20T09:26:28.586Z,0.47
2022-09-20T09:29:51.965Z,0.43
2022-09-20T09:33:20.840Z,0.60
2022-09-20T09:36:45.366Z,0.55
2022-09-20T09:40:15.211Z,0.55
2022-09-20T09:43:40.541Z,0.50
2022-09-20T09:47:02.284Z,0.70
2022-09-20T09:50:26.154Z,0.38
2022-09-20T09:53:50.159Z,0.30
2022-09-20T09:57:28.338Z,0.40
2022-09-20T10:00:53.746Z,0.57
2022-09-20T10:04:21.540Z,0.40
2022-09-20T10:07:49.253Z,0.40
2022-09-20T10:11:20.925Z,0.40
2022-09-20T10:14:54.831Z,0.50
2022-09-20T10:18:42.795Z,0.50
2022-09-20T10:22:12.489Z,0.68
2022-09-20T10:25:43.222Z,0.60
2022-09-20T10:29:15.690Z,0.40
2022-09-20T10:32:59.500Z,0.60
2022-09-20T10:36:33.778Z,0.40
2022-09-20T10:40:07.995Z,0.38
2022-09-20T10:43:39.842Z,0.60
2022-09-20T10:47:08.889Z,0.60
2022-09-20T10:50:43.595Z,0.52
2022-09-20T10:54:17.755Z,0.52
2022-09-20T10:58:01.437Z,0.47
2022-09-20T11:01:29.982Z,0.50
2022-09-20T11:05:10.569Z,0.50
2022-09-20T11:08:36.471Z,0.57
2022-09-20T11:12:07.931Z,0.50
2022-09-20T11:15:33.926Z,0.40
2022-09-20T11:19:01.210Z,0.60
2022-09-20T11:22:27.679Z,0.73
2022-09-20T11:25:52.893Z,0.50
2022-09-20T11:29:26.136Z,0.40
2022-09-20T11:32:53.017Z,0.40
2022-09-20T11:36:21.045Z,0.63
2022-09-20T11:39:49.025Z,0.60
2022-09-20T11:43:11.981Z,0.52
2022-09-20T11:46:44.163Z,0.70
2022-09-20T11:50:43.144Z,0.70
2022-09-20T11:54:29.679Z,0.80
2022-09-20T11:58:02.294Z,4.00
2022-09-20T12:01:28.897Z,0.85
2022-09-20T12:04:53.501Z,0.70
2022-09-20T12:08:23.791Z,0.80
2022-09-20T12:11:45.327Z,0.75
2022-09-20T12:15:22.922Z,0.85
2022-09-20T12:19:02.139Z,0.77
2022-09-20T12:22:30.229Z,0.50
2022-09-20T12:26:03.086Z,0.77
2022-09-20T12:29:54.247Z,0.52
2022-09-20T12:33:22.164Z,0.50
2022-09-20T12:36:46.589Z,0.70
2022-09-20T12:40:19.105Z,0.50
2022-09-20T12:43:53.218Z,0.70
2022-09-20T12:47:19.642Z,0.65
2022-09-20T12:50:58.622Z,0.30
2022-09-20T12:54:20.316Z,0.40
2022-09-20T12:57:43.988Z,0.60
2022-09-20T13:01:39.178Z,0.43
2022-09-20T13:05:00.924Z,0.73
2022-09-20T13:08:24.762Z,0.70
2022-09-20T13:11:50.945Z,0.50
2022-09-20T13:15:19.576Z,0.60
2022-09-20T13:18:42.171Z,0.45
2022-09-20T13:22:07.957Z,0.40
2022-09-20T13:25:29.917Z,0.50
2022-09-20T13:28:55.296Z,0.60
2022-09-20T13:32:18.815Z,0.57
2022-09-20T13:35:41.461Z,0.80
2022-09-20T13:39:03.229Z,0.50
2022-09-20T13:42:25.860Z,0.80
2022-09-20T13:45:50.726Z,0.60
2022-09-20T13:49:20.830Z,0.50
2022-09-20T13:52:46.596Z,0.30
2022-09-20T13:56:11.944Z,0.35
2022-09-20T13:59:41.550Z,0.30
2022-09-20T14:03:03.147Z,0.40
2022-09-20T14:06:29.792Z,0.60
2022-09-20T14:09:51.768Z,0.40
2022-09-20T14:13:17.697Z,0.63
2022-09-20T14:16:44.916Z,0.40
2022-09-20T14:20:08.287Z,0.40
2022-09-20T14:23:31.593Z,0.50
2022-09-20T14:27:06.952Z,0.63
2022-09-20T14:30:31.932Z,0.55
2022-09-20T14:33:55.947Z,1.27
2022-09-20T14:37:25.675Z,0.60
2022-09-20T14:40:49.916Z,0.60
2022-09-20T14:44:24.613Z,0.50
2022-09-20T14:47:56.573Z,0.55
2022-09-20T14:51:25.404Z,0.40
2022-09-20T14:54:59.866Z,0.50
2022-09-20T14:58:24.724Z,0.60
2022-09-20T15:01:56.599Z,0.40
2022-09-20T15:05:25.923Z,0.40
2022-09-20T15:08:47.807Z,0.47
2022-09-20T15:12:14.682Z,0.50
2022-09-20T15:15:37.525Z,0.75
2022-09-20T15:18:58.968Z,0.70
2022-09-20T15:22:20.553Z,0.65
2022-09-20T15:25:42.164Z,0.73
2022-09-20T15:29:03.507Z,0.77
2022-09-20T15:32:26.661Z,1.00
2022-09-20T15:35:49.154Z,0.77
2022-09-20T15:39:10.671Z,0.85
2022-09-20T15:42:32.213Z,0.57
2022-09-20T15:45:55.018Z,0.70
2022-09-20T15:49:17.817Z,0.50
2022-09-20T15:52:41.580Z,0.60
2022-09-20T15:56:05.174Z,0.70
2022-09-20T15:59:28.504Z,0.80
2022-09-20T16:02:50.936Z,0.93
2022-09-20T16:06:14.937Z,0.55
2022-09-20T16:09:37.925Z,0.65
2022-09-20T16:12:59.175Z,0.77
2022-09-20T16:16:20.481Z,0.60
2022-09-20T16:19:42.556Z,0.30
2022-09-20T16:23:05.401Z,0.50
2022-09-20T16:26:29.105Z,0.40
2022-09-20T16:29:50.584Z,0.70
2022-09-20T16:33:12.046Z,0.57
2022-09-20T16:36:34.477Z,1.00
2022-09-20T16:39:57.617Z,1.40
2022-09-20T16:43:26.246Z,1.40
2022-09-20T16:46:47.715Z,1.30
2022-09-20T16:50:11.900Z,1.08
2022-09-20T16:53:33.021Z,1.83
2022-09-20T16:56:56.220Z,1.15
2022-09-20T17:00:20.956Z,1.25
2022-09-20T17:03:42.567Z,1.10
2022-09-20T17:07:04.329Z,1.30
2022-09-20T17:10:28.538Z,1.20
2022-09-20T17:13:52.371Z,1.10
2022-09-20T17:17:13.968Z,4.70
2022-09-20T17:20:35.407Z,3.10
2022-09-20T17:23:58.741Z,2.97
2022-09-20T17:27:20.467Z,4.45
2022-09-20T17:30:43.011Z,2.55
2022-09-20T17:34:07.751Z,2.13
2022-09-20T17:37:29.284Z,2.05
2022-09-20T17:41:00.724Z,1.90
2022-09-20T17:44:22.026Z,1.50
2022-09-20T17:47:47.126Z,2.10
2022-09-20T17:51:12.630Z,1.73
2022-09-20T17:54:34.045Z,1.63
2022-09-20T17:57:55.205Z,1.35
2022-09-20T18:01:20.250Z,1.30
2022-09-20T18:04:43.385Z,1.10
2022-09-20T18:08:05.172Z,1.13
2022-09-20T18:11:31.552Z,0.93
2022-09-20T18:14:53.791Z,1.10
2022-09-20T18:18:15.408Z,1.10
2022-09-20T18:21:39.662Z,1.65
2022-09-20T18:25:01.323Z,1.10
2022-09-20T18:28:22.623Z,1.20
2022-09-20T18:31:48.186Z,1.65
2022-09-20T18:35:10.482Z,1.48
2022-09-20T18:38:33.695Z,1.50
2022-09-20T18:41:56.545Z,1.50
2022-09-20T18:45:21.971Z,1.50
2022-09-20T18:48:44.096Z,2.28
2022-09-20T18:52:05.931Z,2.70
2022-09-20T18:55:30.024Z,4.40
2022-09-20T18:58:53.435Z,2.53
2022-09-20T19:02:47.249Z,2.35
2022-09-20T19:06:12.026Z,2.63
2022-09-20T19:09:40.317Z,2.67
2022-09-20T19:13:12.621Z,1.40
2022-09-20T19:16:36.925Z,1.45
2022-09-20T19:20:05.237Z,1.40
2022-09-20T19:23:43.204Z,1.37
2022-09-20T19:27:05.323Z,1.30
2022-09-20T19:30:29.122Z,1.30
2022-09-20T19:33:54.965Z,1.13
2022-09-20T19:37:28.447Z,1.15
2022-09-20T19:41:00.305Z,1.47
2022-09-20T19:44:34.978Z,1.97
2022-09-20T19:48:06.248Z,2.60
2022-09-20T19:51:28.038Z,2.42
2022-09-20T19:54:53.040Z,2.73
2022-09-20T19:58:15.037Z,2.83
2022-09-20T20:01:37.330Z,2.93
2022-09-20T20:05:01.241Z,2.70
2022-09-20T20:08:32.731Z,2.30
2022-09-20T20:12:10.210Z,1.70
2022-09-20T20:15:43.160Z,1.40
2022-09-20T20:19:20.403Z,1.47
2022-09-20T20:23:11.146Z,1.40
2022-09-20T20:26:33.053Z,1.10
2022-09-20T20:29:55.300Z,1.23
2022-09-20T20:33:18.910Z,1.40
2022-09-20T20:36:40.550Z,1.10
2022-09-20T20:40:03.627Z,1.23
2022-09-20T20:43:27.925Z,1.00
2022-09-20T20:46:50.735Z,1.30
2022-09-20T20:50:12.651Z,1.10
2022-09-20T20:53:36.178Z,1.67
2022-09-20T20:56:59.372Z,1.33
2022-09-20T21:00:21.385Z,1.07
2022-09-20T21:03:47.093Z,1.20
2022-09-20T21:07:08.971Z,1.27
2022-09-20T21:10:31.168Z,1.43
2022-09-20T21:13:55.497Z,1.20
2022-09-20T21:17:17.307Z,1.47
2022-09-20T21:20:39.651Z,1.20
2022-09-20T21:24:02.932Z,1.60
2022-09-20T21:27:24.522Z,1.60
2022-09-20T21:30:47.753Z,1.60
2022-09-20T21:34:11.088Z,1.20
2022-09-20T21:37:32.663Z,1.30
2022-09-20T21:41:02.556Z,1.40
2022-09-20T21:44:24.213Z,1.20
2022-09-20T21:47:49.951Z,1.47
2022-09-20T21:51:12.560Z,1.20
2022-09-20T21:54:33.785Z,1.20
2022-09-20T21:57:55.372Z,1.03
2022-09-20T22:01:18.957Z,1.00
2022-09-20T22:04:41.998Z,1.30
2022-09-20T22:08:03.810Z,1.00
2022-09-20T22:11:27.442Z,1.10
2022-09-20T22:14:49.020Z,0.80
2022-09-20T22:18:10.857Z,1.13
2022-09-20T22:21:35.130Z,1.20
2022-09-20T22:24:59.586Z,1.10
2022-09-20T22:28:21.166Z,1.27
2022-09-20T22:31:45.759Z,1.10
2022-09-20T22:35:07.616Z,1.20
2022-09-20T22:38:32.089Z,2.73
2022-09-20T22:41:53.380Z,1.80
2022-09-20T22:45:15.301Z,1.10
2022-09-20T22:48:37.182Z,0.80
2022-09-20T22:51:58.632Z,1.07
2022-09-20T22:55:21.302Z,1.00
2022-09-20T22:58:44.679Z,1.40
2022-09-20T23:02:05.929Z,0.90
2022-09-20T23:05:28.108Z,1.00
2022-09-20T23:08:49.527Z,0.90
2022-09-20T23:12:12.450Z,0.80
2022-09-20T23:15:33.674Z,0.83
2022-09-20T23:18:56.147Z,0.80
2022-09-20T23:22:17.642Z,0.87
2022-09-20T23:25:38.929Z,0.80
2022-09-20T23:29:03.527Z,0.73
2022-09-20T23:32:25.850Z,0.80
2022-09-20T23:35:47.644Z,0.93
2022-09-20T23:39:10.372Z,0.80
2022-09-20T23:42:31.540Z,1.00
2022-09-20T23:45:54.202Z,1.10
2022-09-20T23:49:16.153Z,1.17
2022-09-20T23:52:37.614Z,1.00
2022-09-20T23:55:59.260Z,1.10
2022-09-20T23:59:20.518Z,0.97
